Time;durP1;ratioP1;P1;durP2;ratioP2;P2;SDS_P1;SDS_P2;PMS_P1;PMS_P2;Temp;Humidity;BMP_temperature;BMP_pressure;BME280_temperature;BME280_humidity;BME280_pressure;Samples;Min_cycle;Max_cycle;Signal;HPM_P1;HPM_P2
2022/08/10 00:02:22;;;;;;;1.80;1.10;;;;;;;19.46;56.58;102553.75;5070460;28;20097;-72
2022/08/10 00:04:47;;;;;;;1.33;1.20;;;;;;;19.40;57.05;102560.09;5073378;28;20028;-72
2022/08/10 00:07:13;;;;;;;5.25;1.40;;;;;;;19.35;57.15;102559.41;5074505;28;20073;-72
2022/08/10 00:09:38;;;;;;;1.50;1.20;;;;;;;19.32;56.79;102554.22;5071219;28;20036;-72
2022/08/10 00:12:04;;;;;;;2.53;1.30;;;;;;;19.29;57.00;102554.38;5073177;28;20032;-71
2022/08/10 00:14:29;;;;;;;1.77;1.30;;;;;;;19.23;57.54;102556.28;5074120;28;20028;-72
2022/08/10 00:16:55;;;;;;;2.50;1.50;;;;;;;19.16;57.75;102552.13;5073928;28;20111;-71
2022/08/10 00:19:20;;;;;;;3.50;1.30;;;;;;;19.10;57.48;102547.09;5068623;28;20083;-72
2022/08/10 00:21:46;;;;;;;4.15;1.35;;;;;;;19.07;58.04;102555.09;5068987;28;21206;-72
2022/08/10 00:24:11;;;;;;;3.10;1.50;;;;;;;19.02;58.05;102544.72;5070254;28;20487;-71
2022/08/10 00:26:36;;;;;;;1.80;1.30;;;;;;;19.02;57.92;102543.84;5072205;28;20036;-72
2022/08/10 00:29:02;;;;;;;3.50;1.63;;;;;;;18.98;58.07;102536.94;5070959;28;20398;-72
2022/08/10 00:31:27;;;;;;;2.42;1.33;;;;;;;18.95;58.01;102530.88;5072724;28;20047;-72
2022/08/10 00:33:53;;;;;;;1.70;1.45;;;;;;;18.92;58.45;102537.97;5068560;28;20036;-72
2022/08/10 00:36:18;;;;;;;1.70;1.40;;;;;;;18.88;58.18;102542.50;5073713;28;20455;-71
2022/08/10 00:38:43;;;;;;;2.47;1.20;;;;;;;18.88;58.27;102533.72;5075833;28;20032;-71
2022/08/10 00:41:08;;;;;;;3.47;1.40;;;;;;;18.84;58.44;102540.88;5072622;28;20024;-71
2022/08/10 00:43:34;;;;;;;1.33;1.20;;;;;;;18.80;58.99;102534.84;5070152;28;20032;-72
2022/08/10 00:45:59;;;;;;;1.50;1.30;;;;;;;18.78;58.54;102531.41;5069807;28;20086;-72
2022/08/10 00:48:24;;;;;;;2.10;1.42;;;;;;;18.76;58.68;102529.75;5070107;28;20077;-72
2022/08/10 00:50:50;;;;;;;2.38;1.38;;;;;;;18.75;58.79;102533.28;5071156;28;20089;-74
2022/08/10 00:53:15;;;;;;;1.77;1.33;;;;;;;18.73;59.09;102529.84;5075419;28;20069;-72
2022/08/10 00:55:41;;;;;;;1.88;1.52;;;;;;;18.71;59.25;102532.50;5070547;28;20025;-72
2022/08/10 00:58:07;;;;;;;2.10;1.60;;;;;;;18.64;59.56;102529.22;5073442;28;20069;-71
2022/08/10 01:00:33;;;;;;;1.70;1.60;;;;;;;18.60;59.41;102527.63;5072485;28;20020;-71
2022/08/10 01:02:58;;;;;;;2.10;1.60;;;;;;;18.54;59.77;102530.44;5067570;28;20441;-72
2022/08/10 01:05:24;;;;;;;3.45;1.70;;;;;;;18.49;59.92;102527.97;5070987;28;20028;-71
2022/08/10 01:07:58;;;;;;;5.15;2.00;;;;;;;18.42;59.36;102518.50;5069537;28;20099;-72
2022/08/10 01:10:47;;;;;;;3.08;1.50;;;;;;;18.40;58.97;102520.34;5067385;28;20032;-72
2022/08/10 01:13:28;;;;;;;3.47;1.70;;;;;;;18.38;59.38;102527.41;5066826;28;20032;-72
2022/08/10 01:16:14;;;;;;;5.70;1.70;;;;;;;18.34;58.90;102523.19;5070475;28;20125;-72
2022/08/10 01:19:02;;;;;;;2.47;1.48;;;;;;;18.26;60.07;102518.16;5067633;28;20031;-72
2022/08/10 01:21:48;;;;;;;2.00;1.60;;;;;;;18.22;59.83;102516.53;5073865;28;20483;-72
2022/08/10 01:24:28;;;;;;;1.60;1.50;;;;;;;18.18;60.84;102525.41;5070368;28;20074;-71
2022/08/10 01:27:20;;;;;;;1.70;1.60;;;;;;;18.13;59.44;102517.66;5068286;28;20434;-71
2022/08/10 01:30:08;;;;;;;2.38;1.70;;;;;;;18.07;60.31;102517.00;5070054;28;20093;-72
2022/08/10 01:32:54;;;;;;;2.33;1.80;;;;;;;17.99;61.36;102518.06;5071168;28;20039;-72
2022/08/10 01:35:35;;;;;;;2.40;1.65;;;;;;;17.99;60.87;102523.34;5067593;28;20029;-71
2022/08/10 01:38:17;;;;;;;4.45;1.98;;;;;;;17.94;60.92;102522.59;5067172;28;20069;-71
2022/08/10 01:40:53;;;;;;;2.40;1.88;;;;;;;17.90;60.92;102518.34;5070180;28;20074;-71
2022/08/10 01:43:19;;;;;;;5.38;2.00;;;;;;;17.88;62.65;102517.53;5068628;28;20443;-71
2022/08/10 01:45:54;;;;;;;2.15;1.70;;;;;;;17.88;62.18;102528.06;5077309;28;20023;-71
2022/08/10 01:48:29;;;;;;;2.97;1.75;;;;;;;17.81;62.12;102524.75;5071853;28;20039;-71
2022/08/10 01:51:25;;;;;;;2.22;1.70;;;;;;;17.77;61.85;102517.84;5069589;28;20039;-72
2022/08/10 01:53:56;;;;;;;4.75;2.47;;;;;;;17.75;62.57;102522.28;5071429;28;20476;-72
2022/08/10 01:56:23;;;;;;;;;;;;;;;17.83;59.75;102527.31;5071415;28;20468;-71
2022/08/10 01:58:54;;;;;;;2.40;1.60;;;;;;;17.72;62.67;102517.97;5070666;28;20469;-72
2022/08/10 02:01:24;;;;;;;2.53;1.93;;;;;;;17.72;62.42;102528.50;5068688;28;20056;-72
2022/08/10 02:03:52;;;;;;;2.22;1.80;;;;;;;17.66;62.97;102528.66;5071254;28;20598;-72
2022/08/10 02:06:21;;;;;;;2.75;2.00;;;;;;;17.65;63.01;102526.94;5071214;28;20024;-71
2022/08/10 02:08:48;;;;;;;2.50;1.95;;;;;;;17.62;62.66;102521.75;5066803;28;20043;-72
2022/08/10 02:11:16;;;;;;;3.50;2.00;;;;;;;17.57;62.67;102518.41;5069531;28;20025;-71
2022/08/10 02:13:43;;;;;;;4.28;1.85;;;;;;;17.51;63.01;102518.56;5070312;28;20086;-72
2022/08/10 02:16:10;;;;;;;4.07;1.80;;;;;;;17.47;63.04;102516.94;5071105;28;20024;-71
2022/08/10 02:18:36;;;;;;;4.72;1.85;;;;;;;17.47;63.15;102516.94;5068162;28;20500;-71
2022/08/10 02:21:06;;;;;;;2.92;1.83;;;;;;;17.43;62.55;102516.16;5070985;28;20021;-72
2022/08/10 02:23:36;;;;;;;2.25;1.80;;;;;;;17.38;63.13;102518.06;5068685;28;20027;-71
2022/08/10 02:26:03;;;;;;;2.40;2.00;;;;;;;17.37;63.33;102511.06;5074333;28;20034;-72
2022/08/10 02:28:31;;;;;;;3.08;1.70;;;;;;;17.34;63.38;102514.66;5068717;28;20040;-72
2022/08/10 02:31:19;;;;;;;2.42;1.77;;;;;;;17.34;62.06;102513.78;5068071;28;20036;-72
2022/08/10 02:33:47;;;;;;;3.47;1.98;;;;;;;17.29;63.78;102519.16;5070631;28;20118;-72
2022/08/10 02:36:14;;;;;;;2.30;1.90;;;;;;;17.24;64.06;102523.72;5067256;28;20107;-72
2022/08/10 02:38:44;;;;;;;3.80;1.70;;;;;;;17.21;64.09;102516.75;5068416;28;20077;-73
2022/08/10 02:41:17;;;;;;;2.33;1.90;;;;;;;17.18;64.05;102514.19;5071343;28;20332;-72
2022/08/10 02:43:52;;;;;;;2.83;1.98;;;;;;;17.18;63.50;102514.19;5067689;28;20051;-72
2022/08/10 02:46:31;;;;;;;3.50;2.20;;;;;;;17.11;63.70;102516.13;5066950;28;20407;-72
2022/08/10 02:49:04;;;;;;;3.60;2.13;;;;;;;17.06;64.07;102512.78;5068619;28;20082;-72
2022/08/10 02:51:41;;;;;;;3.28;1.90;;;;;;;17.05;63.82;102500.53;5071924;28;20036;-73
2022/08/10 02:54:09;;;;;;;2.33;2.03;;;;;;;16.99;64.86;102506.78;5077030;28;20028;-72
2022/08/10 02:56:40;;;;;;;3.55;1.77;;;;;;;16.94;65.25;102497.28;5073627;28;20391;-73
2022/08/10 02:59:10;;;;;;;2.45;1.92;;;;;;;16.95;65.48;102509.53;5068810;28;20470;-72
2022/08/10 03:01:42;;;;;;;2.70;2.13;;;;;;;16.93;65.33;102499.03;5073859;28;20029;-72
2022/08/10 03:04:15;;;;;;;2.13;1.77;;;;;;;16.94;64.97;102492.88;5072279;28;20050;-72
2022/08/10 03:06:46;;;;;;;2.33;1.90;;;;;;;16.86;65.49;102491.38;5075432;28;20103;-72
2022/08/10 03:09:12;;;;;;;;;;;;;;;16.92;62.41;102493.81;5072683;28;20438;-73
2022/08/10 03:11:40;;;;;;;2.95;1.75;;;;;;;16.79;65.50;102488.88;5075088;28;19999;-72
2022/08/10 03:14:07;;;;;;;2.80;2.00;;;;;;;16.72;65.82;102487.31;5065909;28;20391;-72
2022/08/10 03:16:34;;;;;;;4.32;2.10;;;;;;;16.66;65.87;102484.84;5074048;28;20028;-73
2022/08/10 03:19:02;;;;;;;3.05;2.30;;;;;;;16.60;66.21;102487.63;5075647;28;20442;-73
2022/08/10 03:21:29;;;;;;;2.40;2.00;;;;;;;16.54;66.36;102488.63;5074320;28;20426;-72
2022/08/10 03:23:58;;;;;;;4.78;2.10;;;;;;;16.51;66.34;102484.31;5075393;28;20027;-72
2022/08/10 03:26:24;;;;;;;3.13;2.15;;;;;;;16.49;66.51;102491.38;5075734;28;20025;-72
2022/08/10 03:28:51;;;;;;;2.25;1.85;;;;;;;16.46;66.75;102486.19;5073253;28;20043;-72
2022/08/10 03:31:17;;;;;;;4.45;2.20;;;;;;;16.44;66.91;102487.13;5071786;28;20024;-72
2022/08/10 03:33:43;;;;;;;2.58;2.20;;;;;;;16.45;66.97;102489.72;5076449;28;20035;-72
2022/08/10 03:36:09;;;;;;;2.78;2.20;;;;;;;16.45;67.07;102489.72;5075009;28;20028;-72
2022/08/10 03:38:35;;;;;;;4.03;2.47;;;;;;;16.42;66.87;102487.16;5075831;28;20395;-72
2022/08/10 03:41:03;;;;;;;3.30;2.55;;;;;;;16.38;67.17;102482.91;5074402;28;20059;-72
2022/08/10 03:43:30;;;;;;;3.28;2.22;;;;;;;16.37;67.08;102489.06;5071637;28;20086;-72
2022/08/10 03:45:58;;;;;;;4.00;2.20;;;;;;;16.32;67.08;102488.28;5070295;28;20078;-73
2022/08/10 03:48:26;;;;;;;3.17;2.50;;;;;;;16.29;67.42;102490.97;5073180;28;20037;-72
2022/08/10 03:50:52;;;;;;;3.53;2.30;;;;;;;16.28;67.54;102492.75;5068344;28;20441;-73
2022/08/10 03:53:17;;;;;;;3.75;2.08;;;;;;;16.28;67.45;102490.13;5071891;28;20072;-72
2022/08/10 03:55:44;;;;;;;3.50;2.58;;;;;;;16.27;67.60;102495.41;5071261;28;20048;-72
2022/08/10 03:58:10;;;;;;;3.55;2.42;;;;;;;16.22;67.91;102492.88;5073292;28;20053;-72
2022/08/10 04:00:36;;;;;;;3.92;2.65;;;;;;;16.22;67.79;102491.16;5072729;28;20388;-72
2022/08/10 04:03:03;;;;;;;3.50;2.40;;;;;;;16.20;67.95;102492.94;5069110;28;20025;-72
2022/08/10 04:05:30;;;;;;;5.30;2.70;;;;;;;16.17;68.25;102490.38;5070934;28;20025;-72
2022/08/10 04:07:56;;;;;;;3.58;2.70;;;;;;;16.14;68.31;102492.22;5068968;28;20024;-72
2022/08/10 04:10:21;;;;;;;5.20;2.67;;;;;;;16.14;68.14;102492.22;5069502;28;20031;-72
2022/08/10 04:12:47;;;;;;;4.75;2.70;;;;;;;16.13;68.34;102496.59;5068913;28;20032;-72
2022/08/10 04:15:12;;;;;;;6.57;2.65;;;;;;;16.13;68.61;102488.72;5066687;28;20107;-72
2022/08/10 04:17:37;;;;;;;4.85;2.60;;;;;;;16.15;68.50;102480.78;5073505;28;20157;-72
2022/08/10 04:20:06;;;;;;;3.58;2.80;;;;;;;16.14;68.40;102481.72;5065202;28;20051;-72
2022/08/10 04:22:34;;;;;;;3.70;2.25;;;;;;;16.12;68.68;102492.25;5068076;28;20028;-72
2022/08/10 04:25:03;;;;;;;4.75;2.85;;;;;;;16.08;68.88;102491.44;5068373;28;20020;-72
2022/08/10 04:27:29;;;;;;;4.80;2.47;;;;;;;16.05;69.01;102490.66;5071486;28;20033;-72
2022/08/10 04:29:56;;;;;;;5.55;2.50;;;;;;;16.03;68.96;102487.22;5075731;28;20171;-72
2022/08/10 04:32:22;;;;;;;3.25;2.60;;;;;;;16.02;68.96;102490.72;5069324;28;20024;-72
2022/08/10 04:34:49;;;;;;;5.28;2.50;;;;;;;16.04;69.20;102491.56;5072395;28;20033;-72
2022/08/10 04:37:18;;;;;;;4.30;2.55;;;;;;;16.05;69.09;102485.41;5072859;28;20088;-72
2022/08/10 04:39:44;;;;;;;3.22;2.47;;;;;;;16.04;69.20;102499.44;5071935;28;20074;-72
2022/08/10 04:42:10;;;;;;;3.60;2.70;;;;;;;16.06;69.18;102492.38;5069053;28;20390;-72
2022/08/10 04:44:36;;;;;;;4.10;2.58;;;;;;;16.07;69.08;102499.34;5068292;28;20028;-72
2022/08/10 04:47:01;;;;;;;3.30;2.60;;;;;;;16.05;69.10;102490.66;5070846;28;20028;-72
2022/08/10 04:49:27;;;;;;;3.55;2.70;;;;;;;16.06;69.21;102487.13;5071206;28;20168;-73
2022/08/10 04:51:52;;;;;;;4.35;3.00;;;;;;;16.06;69.01;102487.13;5070996;28;20031;-72
2022/08/10 04:54:17;;;;;;;4.40;2.78;;;;;;;16.05;68.95;102481.00;5069224;28;20025;-72
2022/08/10 04:56:42;;;;;;;3.78;2.50;;;;;;;16.06;69.04;102488.00;5070098;28;20036;-72
2022/08/10 04:59:10;;;;;;;5.00;2.88;;;;;;;16.04;69.08;102487.16;5071634;28;20030;-72
2022/08/10 05:01:37;;;;;;;5.85;2.80;;;;;;;16.03;69.37;102481.97;5072168;28;20040;-72
2022/08/10 05:04:02;;;;;;;8.57;2.65;;;;;;;16.06;69.27;102487.13;5068832;28;20422;-72
2022/08/10 05:06:28;;;;;;;5.68;2.90;;;;;;;16.08;69.16;102495.81;5072750;28;20020;-73
2022/08/10 05:08:53;;;;;;;6.57;3.00;;;;;;;16.08;69.44;102483.56;5069067;28;20466;-72
2022/08/10 05:11:18;;;;;;;3.55;2.50;;;;;;;16.12;69.55;102491.38;5071511;28;20078;-73
2022/08/10 05:13:43;;;;;;;6.57;3.08;;;;;;;16.13;69.80;102491.34;5071194;28;20032;-72
2022/08/10 05:16:09;;;;;;;3.63;2.70;;;;;;;16.17;69.84;102485.13;5070968;28;20024;-72
2022/08/10 05:18:34;;;;;;;5.43;2.88;;;;;;;16.20;70.04;102492.94;5067299;28;20036;-72
2022/08/10 05:20:59;;;;;;;3.75;2.90;;;;;;;16.26;69.99;102491.03;5071433;28;20033;-72
2022/08/10 05:23:24;;;;;;;4.88;3.05;;;;;;;16.29;70.20;102494.50;5070907;28;20024;-72
2022/08/10 05:25:50;;;;;;;3.88;2.83;;;;;;;16.34;70.13;102495.22;5072094;28;20479;-72
2022/08/10 05:28:15;;;;;;;6.65;3.42;;;;;;;16.38;69.86;102499.50;5065547;28;20066;-72
2022/08/10 05:30:40;;;;;;;5.03;3.45;;;;;;;16.43;70.13;102495.91;5070907;28;20025;-72
2022/08/10 05:33:06;;;;;;;6.47;3.60;;;;;;;16.47;70.32;102498.44;5070537;28;20100;-73
2022/08/10 05:35:32;;;;;;;7.55;3.65;;;;;;;16.54;70.22;102505.28;5069213;28;20055;-73
2022/08/10 05:37:59;;;;;;;5.85;3.97;;;;;;;16.59;70.33;102506.91;5067521;28;20104;-72
2022/08/10 05:40:26;;;;;;;5.03;3.85;;;;;;;16.66;70.28;102509.34;5065537;28;20035;-72
2022/08/10 05:42:51;;;;;;;7.25;3.92;;;;;;;16.72;70.23;102500.47;5070409;28;20356;-72
2022/08/10 05:45:24;;;;;;;5.43;3.67;;;;;;;16.78;69.85;102502.91;5070023;28;20031;-72
2022/08/10 05:47:50;;;;;;;5.55;3.75;;;;;;;16.86;69.56;102507.13;5069609;28;20043;-72
2022/08/10 05:50:18;;;;;;;4.80;3.42;;;;;;;16.91;69.48;102503.47;5069348;28;20025;-72
2022/08/10 05:52:43;;;;;;;6.70;3.70;;;;;;;16.97;69.63;102506.00;5070092;28;20032;-72
2022/08/10 05:55:09;;;;;;;7.25;4.40;;;;;;;17.04;69.87;102501.44;5068557;28;20032;-72
2022/08/10 05:57:35;;;;;;;5.13;4.32;;;;;;;17.09;69.02;102510.03;5067827;28;20388;-72
2022/08/10 06:00:05;;;;;;;6.10;4.20;;;;;;;17.14;68.67;102505.53;5069456;28;20109;-72
2022/08/10 06:02:32;;;;;;;6.65;4.22;;;;;;;17.20;69.17;102512.38;5066275;28;20020;-72
2022/08/10 06:05:02;;;;;;;5.00;3.85;;;;;;;17.26;68.50;102509.59;5066434;28;20032;-72
2022/08/10 06:07:29;;;;;;;5.82;3.97;;;;;;;17.33;69.26;102512.91;5068313;28;20130;-72
2022/08/10 06:09:57;;;;;;;5.70;4.03;;;;;;;17.40;68.97;102513.63;5071269;28;20028;-72
2022/08/10 06:12:26;;;;;;;6.60;4.00;;;;;;;17.47;68.92;102511.66;5069964;28;20369;-73
2022/08/10 06:15:02;;;;;;;8.38;4.38;;;;;;;17.52;68.94;102510.63;5067876;28;20033;-72
2022/08/10 06:17:29;;;;;;;5.90;4.25;;;;;;;17.62;68.63;102510.38;5066268;28;20036;-72
2022/08/10 06:19:56;;;;;;;6.65;4.18;;;;;;;17.69;68.45;102506.66;5069723;28;20170;-73
2022/08/10 06:22:24;;;;;;;6.10;4.18;;;;;;;17.75;68.04;102507.34;5070855;28;20054;-72
2022/08/10 06:24:49;;;;;;;8.02;3.60;;;;;;;17.84;67.79;102503.59;5069927;28;20089;-72
2022/08/10 06:27:15;;;;;;;5.85;4.03;;;;;;;17.90;67.30;102510.44;5066670;28;20024;-72
2022/08/10 06:29:42;;;;;;;5.68;4.00;;;;;;;17.96;67.15;102507.59;5066853;28;20173;-72
2022/08/10 06:32:09;;;;;;;4.78;3.50;;;;;;;18.02;66.43;102501.31;5067282;28;20025;-72
2022/08/10 06:34:40;;;;;;;6.68;3.40;;;;;;;18.08;66.59;102500.28;5066612;28;20024;-72
2022/08/10 06:37:07;;;;;;;8.77;3.22;;;;;;;18.14;66.05;102502.72;5068576;28;20028;-72
2022/08/10 06:39:34;;;;;;;4.55;2.95;;;;;;;18.23;66.26;102496.28;5069280;28;20085;-72
2022/08/10 06:42:31;;;;;;;7.55;3.45;;;;;;;18.31;65.29;102499.56;5068788;28;20033;-73
2022/08/10 06:45:05;;;;;;;3.97;3.22;;;;;;;18.38;65.55;102494.94;5063695;28;20059;-72
2022/08/10 06:47:40;;;;;;;4.90;3.90;;;;;;;18.43;66.07;102499.16;5066255;28;20476;-72
2022/08/10 06:50:12;;;;;;;7.03;4.03;;;;;;;18.48;65.42;102497.25;5067645;28;20035;-72
2022/08/10 06:52:39;;;;;;;4.82;4.03;;;;;;;18.55;65.86;102505.81;5069112;28;20028;-72
2022/08/10 06:55:08;;;;;;;4.70;3.45;;;;;;;18.62;64.89;102504.66;5071221;28;20028;-72
2022/08/10 06:57:36;;;;;;;4.75;3.28;;;;;;;18.70;64.51;102511.47;5071222;28;20027;-72
2022/08/10 07:00:04;;;;;;;4.55;3.10;;;;;;;18.76;65.16;102500.75;5074322;28;20027;-72
2022/08/10 07:02:40;;;;;;;4.75;3.30;;;;;;;18.85;65.36;102504.84;5083907;28;20498;-72
2022/08/10 07:05:10;;;;;;;3.90;3.15;;;;;;;18.92;64.56;102512.50;5066818;28;20185;-72
2022/08/10 07:07:38;;;;;;;5.57;3.17;;;;;;;18.96;64.32;102508.84;5066500;28;20530;-72
2022/08/10 07:10:05;;;;;;;8.25;3.30;;;;;;;19.03;64.77;102512.16;5063400;28;20036;-72
2022/08/10 07:12:34;;;;;;;4.15;3.10;;;;;;;19.09;64.02;102513.72;5068091;28;20033;-72
2022/08/10 07:15:01;;;;;;;4.63;2.90;;;;;;;19.13;63.34;102510.03;5077245;28;20023;-72
2022/08/10 07:17:29;;;;;;;4.10;3.10;;;;;;;19.19;63.31;102515.09;5062989;28;20063;-72
2022/08/10 07:19:57;;;;;;;3.80;3.15;;;;;;;19.25;63.00;102524.56;5067585;28;20025;-72
2022/08/10 07:22:28;;;;;;;4.28;3.13;;;;;;;19.31;63.34;102521.72;5069649;28;20108;-72
2022/08/10 07:24:55;;;;;;;5.70;3.30;;;;;;;19.38;62.53;102514.44;5070676;28;20085;-73
2022/08/10 07:27:22;;;;;;;3.28;2.85;;;;;;;19.44;62.64;102518.63;5068769;28;20020;-72
2022/08/10 07:29:50;;;;;;;6.15;3.13;;;;;;;19.48;62.62;102517.59;5068548;28;20079;-73
2022/08/10 07:32:16;;;;;;;4.90;3.10;;;;;;;19.54;62.23;102518.22;5066544;28;20468;-72
2022/08/10 07:34:43;;;;;;;3.63;2.85;;;;;;;19.59;61.22;102517.22;5069507;28;20432;-72
2022/08/10 07:37:09;;;;;;;5.63;3.17;;;;;;;19.65;61.45;102522.25;5065152;28;20028;-72
2022/08/10 07:39:42;;;;;;;5.25;2.72;;;;;;;19.71;62.08;102519.38;5067699;28;20383;-72
2022/08/10 07:42:10;;;;;;;4.75;3.10;;;;;;;19.78;60.65;102520.00;5073212;28;20026;-72
2022/08/10 07:44:38;;;;;;;4.35;3.08;;;;;;;19.82;61.32;102514.53;5070650;28;20028;-72
2022/08/10 07:47:07;;;;;;;5.85;3.00;;;;;;;19.88;61.10;102525.84;5070213;28;20073;-72
2022/08/10 07:49:38;;;;;;;4.60;2.92;;;;;;;19.93;60.75;102522.09;5072914;28;20037;-73
2022/08/10 07:52:07;;;;;;;4.97;3.00;;;;;;;19.99;60.53;102510.41;5073454;28;20024;-72
2022/08/10 07:54:42;;;;;;;3.65;3.03;;;;;;;20.06;59.95;102516.34;5072315;28;20084;-73
2022/08/10 07:57:21;;;;;;;4.28;3.30;;;;;;;20.12;60.31;102522.25;5068250;28;20451;-72
2022/08/10 07:59:54;;;;;;;4.72;2.97;;;;;;;20.20;60.99;102526.34;5069644;28;20029;-73
2022/08/10 08:02:51;;;;;;;4.28;3.10;;;;;;;20.28;60.06;102526.94;5069411;28;20020;-72
2022/08/10 08:05:19;;;;;;;4.57;3.08;;;;;;;20.34;60.01;102517.88;5059159;28;20052;-73
2022/08/10 08:07:46;;;;;;;4.30;3.25;;;;;;;20.39;59.58;102519.41;5069837;28;20033;-72
2022/08/10 08:10:12;;;;;;;7.47;3.20;;;;;;;20.44;58.62;102517.44;5072987;28;20476;-72
2022/08/10 08:12:40;;;;;;;5.32;3.20;;;;;;;20.51;58.86;102517.19;5072707;28;20047;-72
2022/08/10 08:15:08;;;;;;;3.92;3.08;;;;;;;20.56;59.09;102525.78;5070318;28;20023;-73
2022/08/10 08:17:35;;;;;;;3.42;2.78;;;;;;;20.59;59.49;102520.38;5071132;28;20035;-73
2022/08/10 08:20:02;;;;;;;3.30;2.80;;;;;;;20.65;58.32;102522.78;5073903;28;20025;-73
2022/08/10 08:22:27;;;;;;;3.95;3.15;;;;;;;20.70;57.94;102526.06;5070470;28;20037;-72
2022/08/10 08:24:56;;;;;;;4.70;2.92;;;;;;;20.77;57.46;102524.06;5069227;28;20082;-72
2022/08/10 08:27:22;;;;;;;3.40;2.78;;;;;;;20.83;57.22;102517.69;5073306;28;20556;-72
2022/08/10 08:29:49;;;;;;;3.67;3.17;;;;;;;20.89;56.95;102517.41;5073888;28;20090;-73
2022/08/10 08:32:21;;;;;;;4.28;2.97;;;;;;;20.94;57.81;102520.72;5072927;28;20024;-72
2022/08/10 08:34:48;;;;;;;4.47;2.90;;;;;;;21.01;57.13;102516.84;5067973;28;20037;-72
2022/08/10 08:37:16;;;;;;;4.68;3.00;;;;;;;21.07;58.56;102511.31;5072101;28;20028;-72
2022/08/10 08:39:42;;;;;;;4.45;3.13;;;;;;;21.15;56.68;102518.91;5073042;28;20197;-73
2022/08/10 08:42:36;;;;;;;3.22;2.92;;;;;;;21.22;57.18;102514.19;5073172;28;20483;-73
2022/08/10 08:45:39;;;;;;;4.13;3.20;;;;;;;21.31;57.44;102513.81;5069748;28;20132;-72
2022/08/10 08:48:50;;;;;;;4.28;3.00;;;;;;;21.40;57.47;102511.66;5074941;28;20035;-72
2022/08/10 08:51:27;;;;;;;3.33;2.88;;;;;;;21.45;57.58;102509.69;5071457;28;20111;-72
2022/08/10 08:54:16;;;;;;;3.47;3.05;;;;;;;21.51;56.77;102506.75;5065636;28;20028;-72
2022/08/10 08:56:52;;;;;;;3.58;2.63;;;;;;;21.57;56.72;102514.41;5086036;28;20028;-72
2022/08/10 08:59:30;;;;;;;4.78;2.83;;;;;;;21.62;56.89;102512.44;5071048;28;20277;-72
2022/08/10 09:02:29;;;;;;;4.18;3.05;;;;;;;21.70;56.31;102508.56;5069098;28;20025;-72
2022/08/10 09:05:06;;;;;;;4.28;2.95;;;;;;;21.73;55.18;102509.31;5067522;28;20029;-72
2022/08/10 09:08:01;;;;;;;3.75;2.60;;;;;;;21.81;56.20;102507.13;5064863;28;20127;-73
2022/08/10 09:10:57;;;;;;;5.78;2.95;;;;;;;21.91;55.28;102507.56;5067421;28;20028;-73
2022/08/10 09:13:47;;;;;;;5.15;2.40;;;;;;;22.01;55.31;102507.16;5066296;28;20032;-72
2022/08/10 09:16:33;;;;;;;3.65;2.80;;;;;;;22.10;54.44;102506.69;5062290;28;20016;-72
2022/08/10 09:19:30;;;;;;;5.95;2.70;;;;;;;22.19;54.39;102500.97;5067599;28;20035;-73
2022/08/10 09:22:08;;;;;;;3.80;2.33;;;;;;;22.25;53.79;102500.63;5067611;28;20028;-73
2022/08/10 09:24:43;;;;;;;2.92;2.40;;;;;;;22.32;52.24;102495.03;5067851;28;20384;-73
2022/08/10 09:27:20;;;;;;;4.88;2.42;;;;;;;22.39;52.74;102494.66;5068908;28;20032;-73
2022/08/10 09:29:53;;;;;;;9.90;2.70;;;;;;;22.45;52.24;102490.88;5067188;28;20339;-72
2022/08/10 09:32:37;;;;;;;3.88;2.40;;;;;;;22.52;52.22;102486.13;5069124;28;20025;-73
2022/08/10 09:35:06;;;;;;;4.65;2.50;;;;;;;22.57;51.05;102492.06;5067397;28;20036;-72
2022/08/10 09:37:43;;;;;;;3.70;2.50;;;;;;;22.63;50.56;102482.94;5068517;28;20020;-72
2022/08/10 09:40:28;;;;;;;3.58;2.10;;;;;;;22.69;51.83;102479.97;5068040;28;20552;-72
2022/08/10 09:43:13;;;;;;;3.30;2.08;;;;;;;22.78;50.31;102479.47;5069077;28;20066;-72
2022/08/10 09:45:57;;;;;;;3.42;2.15;;;;;;;22.85;49.91;102477.38;5069017;28;20035;-72
2022/08/10 09:48:36;;;;;;;4.47;2.22;;;;;;;22.94;49.89;102473.38;5066636;28;20138;-72
2022/08/10 09:51:23;;;;;;;3.05;2.20;;;;;;;23.02;49.37;102472.03;5062272;28;20028;-72
2022/08/10 09:54:16;;;;;;;3.35;2.13;;;;;;;23.14;50.17;102470.53;5066002;28;20033;-72
2022/08/10 09:56:59;;;;;;;3.25;2.40;;;;;;;23.21;47.73;102468.44;5061505;28;20020;-72
2022/08/10 10:00:07;;;;;;;3.05;2.33;;;;;;;23.30;48.74;102469.75;5067567;28;20067;-72
2022/08/10 10:02:54;;;;;;;4.38;2.10;;;;;;;23.38;48.32;102469.31;5065366;28;20037;-73
2022/08/10 10:05:31;;;;;;;4.85;2.20;;;;;;;23.40;47.62;102452.34;5063354;28;20054;-72
2022/08/10 10:08:08;;;;;;;4.70;2.47;;;;;;;23.43;47.80;102459.31;5064877;28;20035;-73
2022/08/10 10:11:02;;;;;;;6.85;2.22;;;;;;;23.51;48.39;102456.22;5069099;28;20946;-73
2022/08/10 10:14:05;;;;;;;4.97;2.28;;;;;;;23.54;46.41;102448.94;5061345;28;20052;-73
2022/08/10 10:16:40;;;;;;;3.30;2.40;;;;;;;23.60;45.70;102451.28;5064248;28;20214;-73
2022/08/10 10:19:37;;;;;;;3.65;2.17;;;;;;;23.68;46.77;102445.53;5068448;28;20123;-73
2022/08/10 10:22:25;;;;;;;3.20;2.28;;;;;;;23.72;45.71;102447.06;5064458;28;20388;-73
2022/08/10 10:24:58;;;;;;;3.17;2.13;;;;;;;23.82;46.19;102435.91;5068104;28;20021;-72
2022/08/10 10:27:30;;;;;;;3.00;2.42;;;;;;;23.92;46.34;102437.09;5067056;28;20039;-73
2022/08/10 10:30:07;;;;;;;4.05;2.15;;;;;;;24.01;46.15;102430.41;5068083;28;20040;-73
2022/08/10 10:32:46;;;;;;;3.85;2.38;;;;;;;24.08;45.94;102432.63;5064604;28;20024;-73
2022/08/10 10:35:21;;;;;;;5.72;2.40;;;;;;;24.12;44.84;102427.13;5064675;28;20048;-73
2022/08/10 10:37:50;;;;;;;4.50;2.30;;;;;;;24.18;45.92;102426.78;5072756;28;20484;-73
2022/08/10 10:40:17;;;;;;;5.38;2.30;;;;;;;24.22;43.58;102428.31;5070250;28;20101;-72
2022/08/10 10:42:49;;;;;;;4.32;2.45;;;;;;;24.25;44.17;102425.50;5070325;28;20471;-73
2022/08/10 10:45:30;;;;;;;2.15;1.90;;;;;;;24.26;43.43;102419.19;5074572;28;20056;-73
2022/08/10 10:48:18;;;;;;;2.75;2.15;;;;;;;24.28;44.35;102427.94;5067654;28;20040;-73
2022/08/10 10:51:01;;;;;;;6.78;2.40;;;;;;;24.31;44.45;102414.47;5065987;28;20021;-73
2022/08/10 10:53:44;;;;;;;4.75;2.10;;;;;;;24.36;44.32;102411.53;5066471;28;20028;-73
2022/08/10 10:56:43;;;;;;;2.97;2.20;;;;;;;24.39;44.52;102406.91;5068111;28;20035;-73
2022/08/10 10:59:23;;;;;;;3.30;2.17;;;;;;;24.43;43.68;102404.91;5070274;28;21132;-73
2022/08/10 11:02:06;;;;;;;3.63;2.28;;;;;;;24.49;43.71;102401.03;5067820;28;20028;-73
2022/08/10 11:04:44;;;;;;;4.03;2.25;;;;;;;24.54;42.32;102401.59;5067927;28;20068;-73
2022/08/10 11:07:26;;;;;;;5.90;2.58;;;;;;;24.58;42.87;102399.59;5068931;28;20119;-72
2022/08/10 11:09:56;;;;;;;3.05;2.20;;;;;;;24.57;42.65;102390.78;5069712;28;20076;-73
2022/08/10 11:12:48;;;;;;;2.83;2.28;;;;;;;24.61;42.49;102386.97;5071971;28;20016;-72
2022/08/10 11:15:35;;;;;;;2.67;2.08;;;;;;;24.67;43.08;102391.91;5071626;28;20077;-73
2022/08/10 11:18:14;;;;;;;3.85;2.28;;;;;;;24.70;42.43;102388.25;5073041;28;20040;-73
2022/08/10 11:20:45;;;;;;;4.97;2.20;;;;;;;24.70;40.62;102381.13;5072484;28;20017;-73
2022/08/10 11:23:35;;;;;;;3.83;2.30;;;;;;;24.74;41.32;102386.25;5068440;28;20028;-72
2022/08/10 11:26:15;;;;;;;2.35;2.15;;;;;;;24.76;41.77;102379.03;5070403;28;20025;-73
2022/08/10 11:29:14;;;;;;;3.20;2.10;;;;;;;24.80;41.68;102384.06;5073382;28;20039;-73
2022/08/10 11:31:48;;;;;;;5.13;2.30;;;;;;;24.85;43.48;102383.78;5070788;28;20039;-72
2022/08/10 11:34:26;;;;;;;4.90;2.20;;;;;;;24.92;40.81;102378.94;5072457;28;20070;-73
2022/08/10 11:37:03;;;;;;;3.30;2.38;;;;;;;24.96;41.30;102375.97;5074058;28;20020;-73
2022/08/10 11:39:44;;;;;;;3.38;2.30;;;;;;;25.03;41.32;102380.91;5072945;28;20035;-73
2022/08/10 11:42:14;;;;;;;3.92;2.13;;;;;;;25.05;41.42;102379.00;5073017;28;20372;-73
2022/08/10 11:44:48;;;;;;;4.13;2.25;;;;;;;25.07;40.55;102377.97;5070555;28;20020;-73
2022/08/10 11:47:19;;;;;;;4.28;2.40;;;;;;;25.10;40.04;102377.78;5071602;28;20082;-72
2022/08/10 11:50:22;;;;;;;3.20;2.30;;;;;;;25.17;41.55;102382.72;5073916;28;20499;-72
2022/08/10 11:53:27;;;;;;;4.13;2.20;;;;;;;25.24;41.96;102368.91;5070398;28;20028;-73